Time;durP1;ratioP1;P1;durP2;ratioP2;P2;SDS_P1;SDS_P2;PMS_P1;PMS_P2;Temp;Humidity;BMP_temperature;BMP_pressure;BME280_temperature;BME280_humidity;BME280_pressure;Samples;Min_cycle;Max_cycle;Signal;HPM_P1;HPM_P2
2021/10/25 00:01:02;;;;;;;11.07;8.75;;;;;;;8.62;87.95;101937.56;4846642;29;20057;-82
2021/10/25 00:03:28;;;;;;;13.90;9.05;;;;;;;8.62;87.80;101934.97;4863201;29;20337;-82
2021/10/25 00:05:55;;;;;;;12.43;9.18;;;;;;;8.65;87.68;101934.88;4847144;29;20049;-82
2021/10/25 00:08:20;;;;;;;10.30;8.88;;;;;;;8.67;87.65;101934.03;4859976;29;20109;-82
2021/10/25 00:10:46;;;;;;;12.48;9.00;;;;;;;8.67;87.54;101932.25;4846326;29;20041;-82
2021/10/25 00:13:11;;;;;;;12.30;8.80;;;;;;;8.67;87.47;101924.44;4864308;29;20053;-82
2021/10/25 00:15:37;;;;;;;12.77;9.15;;;;;;;8.70;87.45;101921.78;4843763;29;20072;-82
2021/10/25 00:18:04;;;;;;;14.32;8.65;;;;;;;8.70;87.52;101923.53;4859449;29;20041;-82
2021/10/25 00:20:30;;;;;;;11.90;9.07;;;;;;;8.72;87.46;101927.00;4847321;29;20052;-82
2021/10/25 00:22:56;;;;;;;10.10;8.00;;;;;;;8.72;87.42;101921.75;4862965;29;20041;-82
2021/10/25 00:25:21;;;;;;;14.43;9.05;;;;;;;8.72;87.39;101917.38;4867887;29;20058;-82
2021/10/25 00:27:47;;;;;;;9.95;8.55;;;;;;;8.71;87.37;101912.19;4851368;29;20308;-82
2021/10/25 00:30:12;;;;;;;12.73;9.25;;;;;;;8.71;87.58;101910.44;4852138;29;20049;-82
2021/10/25 00:32:38;;;;;;;10.57;9.23;;;;;;;8.72;87.51;101906.94;4850956;29;20129;-82
2021/10/25 00:35:04;;;;;;;13.93;8.93;;;;;;;8.73;87.45;101907.78;4852030;29;20047;-82
2021/10/25 00:37:30;;;;;;;11.90;8.90;;;;;;;8.73;87.55;101913.91;4850807;29;20049;-82
2021/10/25 00:39:55;;;;;;;14.48;8.93;;;;;;;8.73;87.56;101907.78;4832273;29;20046;-82
2021/10/25 00:42:21;;;;;;;14.35;9.43;;;;;;;8.76;87.74;101902.53;4850903;29;20352;-82
2021/10/25 00:44:46;;;;;;;14.02;9.02;;;;;;;8.74;87.28;101897.34;4850971;29;20097;-82
2021/10/25 00:47:11;;;;;;;13.70;9.60;;;;;;;8.76;87.13;101902.53;4851359;29;20333;-82
2021/10/25 00:49:37;;;;;;;15.85;9.77;;;;;;;8.76;87.53;101895.56;4867432;29;20041;-82
2021/10/25 00:52:03;;;;;;;17.33;9.70;;;;;;;8.77;87.38;101899.91;4820724;29;20253;-82
2021/10/25 00:54:28;;;;;;;12.20;9.20;;;;;;;8.78;87.30;101896.38;4835671;29;20093;-82
2021/10/25 00:56:54;;;;;;;12.60;9.30;;;;;;;8.77;87.11;101892.06;4835801;29;20112;-82
2021/10/25 00:59:19;;;;;;;13.55;9.20;;;;;;;8.79;87.00;101892.91;4867536;29;20064;-82
2021/10/25 01:01:46;;;;;;;14.77;9.70;;;;;;;8.80;87.08;101898.97;4867253;29;20033;-82
2021/10/25 01:04:12;;;;;;;12.05;9.35;;;;;;;8.80;86.87;101907.69;4835731;29;20104;-82
2021/10/25 01:06:38;;;;;;;15.60;9.63;;;;;;;8.80;86.92;101901.59;4831938;29;20288;-82
2021/10/25 01:09:04;;;;;;;14.23;9.18;;;;;;;8.81;86.97;101911.16;4850999;29;20049;-82
2021/10/25 01:11:31;;;;;;;11.52;9.50;;;;;;;8.80;86.95;101909.44;4835072;29;20344;-82
2021/10/25 01:13:57;;;;;;;13.30;9.10;;;;;;;8.79;86.88;101908.56;4851373;29;20046;-82
2021/10/25 01:16:22;;;;;;;15.80;9.52;;;;;;;8.81;87.24;101911.16;4867154;29;20044;-82
2021/10/25 01:18:49;;;;;;;13.02;9.70;;;;;;;8.80;87.09;101909.44;4850644;29;20077;-82
2021/10/25 01:21:15;;;;;;;12.80;8.98;;;;;;;8.81;87.12;101908.56;4851504;29;20045;-82
2021/10/25 01:23:40;;;;;;;13.13;9.15;;;;;;;8.80;86.71;101912.03;4834569;29;20383;-82
2021/10/25 01:26:06;;;;;;;14.18;9.40;;;;;;;8.79;86.99;101905.09;4867461;29;20044;-82
2021/10/25 01:28:32;;;;;;;12.25;9.45;;;;;;;8.81;87.27;101898.09;4831963;29;20049;-82
2021/10/25 01:30:57;;;;;;;12.57;9.30;;;;;;;8.81;87.54;101903.31;4835540;29;20218;-82
2021/10/25 01:33:23;;;;;;;9.50;8.55;;;;;;;8.82;87.23;101905.91;4835060;29;20053;-82
2021/10/25 01:35:48;;;;;;;13.43;9.80;;;;;;;8.81;87.26;101892.88;4866703;29;20037;-82
2021/10/25 01:38:14;;;;;;;12.60;9.25;;;;;;;8.82;87.30;101895.47;4834832;29;20045;-82
2021/10/25 01:40:40;;;;;;;12.40;8.82;;;;;;;8.81;87.34;101893.72;4849420;29;20352;-82
2021/10/25 01:43:05;;;;;;;10.68;8.45;;;;;;;8.84;87.46;101898.03;4850282;29;20049;-82
2021/10/25 01:45:31;;;;;;;16.08;9.43;;;;;;;8.86;87.39;101898.91;4849445;29;20045;-82
2021/10/25 01:47:56;;;;;;;16.65;10.05;;;;;;;8.86;87.21;101900.63;4850700;29;20032;-82
2021/10/25 01:50:23;;;;;;;11.98;8.55;;;;;;;8.87;87.22;101903.22;4866739;29;20037;-82
2021/10/25 01:52:49;;;;;;;12.45;9.40;;;;;;;8.86;87.24;101891.06;4845618;29;20029;-82
2021/10/25 01:55:14;;;;;;;11.80;9.07;;;;;;;8.86;87.19;101898.91;4834819;29;20052;-82
2021/10/25 01:57:40;;;;;;;11.88;9.05;;;;;;;8.87;87.37;101892.75;4866389;29;20052;-82
2021/10/25 02:00:06;;;;;;;16.10;8.63;;;;;;;8.87;87.25;101879.72;4866456;29;20290;-82
2021/10/25 02:02:31;;;;;;;13.18;9.25;;;;;;;8.89;87.19;101882.28;4849950;29;20041;-82
2021/10/25 02:04:58;;;;;;;11.60;8.50;;;;;;;8.90;87.14;101879.66;4864904;29;20052;-82
2021/10/25 02:07:23;;;;;;;10.88;8.80;;;;;;;8.90;87.28;101882.28;4840246;29;20253;-82
2021/10/25 02:09:49;;;;;;;12.38;9.23;;;;;;;8.92;87.52;101887.47;4864723;29;20038;-82
2021/10/25 02:12:15;;;;;;;13.57;8.77;;;;;;;8.93;87.44;101881.34;4849858;29;20093;-82
2021/10/25 02:14:41;;;;;;;9.38;8.40;;;;;;;8.94;87.48;101873.50;4865743;29;20056;-82
2021/10/25 02:17:06;;;;;;;12.05;8.48;;;;;;;8.96;87.48;101878.69;4834781;29;20085;-82
2021/10/25 02:19:32;;;;;;;14.77;8.82;;;;;;;8.96;87.46;101866.47;4865840;29;20043;-82
2021/10/25 02:21:57;;;;;;;12.25;8.35;;;;;;;8.97;87.66;101865.59;4843343;29;20355;-82
2021/10/25 02:24:23;;;;;;;12.00;8.85;;;;;;;8.99;87.57;101865.59;4842803;29;20033;-82
2021/10/25 02:26:48;;;;;;;11.43;8.93;;;;;;;9.01;87.63;101866.41;4865718;29;20064;-82
2021/10/25 02:29:14;;;;;;;11.88;9.05;;;;;;;9.01;87.53;101856.81;4834698;29;20052;-82
2021/10/25 02:31:40;;;;;;;11.82;8.90;;;;;;;9.03;87.53;101865.47;4849535;29;20105;-82
2021/10/25 02:34:05;;;;;;;16.33;9.05;;;;;;;9.02;87.50;101855.94;4865375;29;20049;-82
2021/10/25 02:36:30;;;;;;;13.75;8.10;;;;;;;9.03;87.25;101849.81;4865418;29;20038;-82
2021/10/25 02:38:56;;;;;;;13.38;8.98;;;;;;;9.06;87.89;101848.91;4849236;29;20029;-82
2021/10/25 02:41:21;;;;;;;13.73;9.10;;;;;;;9.08;88.00;101846.25;4865702;29;20278;-82
2021/10/25 02:43:47;;;;;;;11.77;8.52;;;;;;;9.10;88.05;101850.56;4851925;29;20037;-82
2021/10/25 02:46:13;;;;;;;10.80;8.20;;;;;;;9.11;88.08;101840.97;4865829;29;20302;-82
2021/10/25 02:48:39;;;;;;;9.80;8.32;;;;;;;9.13;88.27;101845.28;4870002;29;20037;-83
2021/10/25 02:51:05;;;;;;;11.40;8.82;;;;;;;9.14;88.11;101848.75;4842198;29;20094;-83
2021/10/25 02:53:30;;;;;;;12.98;8.75;;;;;;;9.15;88.43;101848.75;4856870;29;20340;-83
2021/10/25 02:55:56;;;;;;;12.95;8.27;;;;;;;9.16;88.62;101850.44;4873849;29;20047;-83
2021/10/25 02:58:21;;;;;;;11.15;8.30;;;;;;;9.16;88.77;101846.97;4872676;29;20069;-83
2021/10/25 03:00:47;;;;;;;11.23;8.13;;;;;;;9.17;88.71;101843.47;4856360;29;20041;-83
2021/10/25 03:03:12;;;;;;;15.93;9.13;;;;;;;9.18;89.09;101837.34;4855708;29;20077;-83
2021/10/25 03:05:38;;;;;;;13.95;8.35;;;;;;;9.20;89.04;101846.91;4856096;29;20082;-83
2021/10/25 03:08:04;;;;;;;13.32;8.63;;;;;;;9.21;89.09;101835.53;4841140;29;20329;-83
2021/10/25 03:10:29;;;;;;;13.90;9.18;;;;;;;9.21;89.19;101839.91;4872423;29;20044;-83
2021/10/25 03:12:55;;;;;;;13.93;9.05;;;;;;;9.21;89.54;101829.47;4855845;29;20041;-83
2021/10/25 03:15:21;;;;;;;13.35;8.98;;;;;;;9.21;89.99;101835.53;4872408;29;20314;-83
2021/10/25 03:17:46;;;;;;;15.02;9.10;;;;;;;9.22;90.17;101836.41;4856389;29;20108;-83
2021/10/25 03:20:12;;;;;;;14.45;9.50;;;;;;;9.23;90.58;101836.38;4872364;29;20093;-83
2021/10/25 03:22:39;;;;;;;13.10;9.43;;;;;;;9.22;91.15;101833.78;4855730;29;20049;-83
2021/10/25 03:25:05;;;;;;;13.02;10.55;;;;;;;9.21;91.35;101830.31;4856355;29;20052;-83
2021/10/25 03:27:31;;;;;;;20.05;10.43;;;;;;;9.22;91.21;101839.00;4856360;29;20052;-83
2021/10/25 03:29:56;;;;;;;16.65;10.05;;;;;;;9.20;91.50;101835.56;4872479;29;20057;-84
2021/10/25 03:32:22;;;;;;;13.40;10.23;;;;;;;9.21;91.73;101837.31;4856884;29;20061;-83
2021/10/25 03:34:47;;;;;;;20.00;10.32;;;;;;;9.20;91.86;101836.44;4856968;29;20088;-83
2021/10/25 03:37:13;;;;;;;16.95;11.20;;;;;;;9.20;92.10;101835.56;4856778;29;20049;-83
2021/10/25 03:39:41;;;;;;;15.48;11.38;;;;;;;9.18;92.41;101840.81;4872386;29;20033;-83
2021/10/25 03:42:13;;;;;;;15.38;10.77;;;;;;;9.18;92.51;101830.38;4873402;29;20093;-83
2021/10/25 03:44:46;;;;;;;14.43;10.75;;;;;;;9.21;92.27;101834.69;4858190;29;20037;-83
2021/10/25 03:47:18;;;;;;;19.25;11.32;;;;;;;9.21;92.61;101837.31;4843712;29;20037;-83
2021/10/25 03:49:50;;;;;;;17.55;11.63;;;;;;;9.21;92.75;101830.31;4858299;29;20345;-83
2021/10/25 03:52:26;;;;;;;19.40;12.00;;;;;;;9.22;92.75;101828.56;4872939;29;20033;-83
2021/10/25 04:03:28;;;;;;;16.52;12.10;;;;;;;9.21;93.31;101819.84;4862152;29;20086;-83
2021/10/25 04:13:59;;;;;;;19.60;13.38;;;;;;;9.24;93.66;101826.81;4858851;29;20075;-83
2021/10/25 04:30:15;;;;;;;19.73;14.15;;;;;;;9.30;94.14;101834.50;4861413;29;20105;-83
2021/10/25 04:32:41;;;;;;;19.40;14.20;;;;;;;9.30;94.29;101833.66;4859468;29;20048;-83
2021/10/25 04:35:06;;;;;;;26.55;15.30;;;;;;;9.31;94.24;101833.59;4859541;29;20041;-83
2021/10/25 04:37:32;;;;;;;25.63;17.13;;;;;;;9.31;94.13;101830.97;4844565;29;20451;-83
2021/10/25 04:39:57;;;;;;;26.13;16.77;;;;;;;9.33;94.30;101837.06;4859436;29;20033;-83
2021/10/25 04:42:23;;;;;;;29.33;17.85;;;;;;;9.35;94.55;101824.81;4842718;29;20326;-83
2021/10/25 04:44:48;;;;;;;27.50;17.50;;;;;;;9.35;94.67;101829.19;4829296;29;20026;-83
2021/10/25 04:47:14;;;;;;;27.50;17.90;;;;;;;9.37;94.38;101827.41;4860934;29;20029;-83
2021/10/25 04:49:40;;;;;;;24.05;18.50;;;;;;;9.38;94.73;101824.75;4844311;29;20037;-83
2021/10/25 04:52:06;;;;;;;30.70;19.73;;;;;;;9.40;94.71;101822.09;4876188;29;20067;-83
2021/10/25 04:54:31;;;;;;;28.27;19.02;;;;;;;9.40;94.63;101819.50;4859906;29;20053;-83
2021/10/25 04:56:57;;;;;;;29.67;20.75;;;;;;;9.41;94.67;101827.31;4859280;29;20332;-83
2021/10/25 04:59:23;;;;;;;33.08;21.25;;;;;;;9.42;94.96;101825.53;4858895;29;20053;-83
2021/10/25 05:01:48;;;;;;;36.75;22.42;;;;;;;9.44;94.79;101820.28;4844609;29;20037;-83
2021/10/25 05:04:14;;;;;;;36.50;21.50;;;;;;;9.44;94.96;101818.56;4844186;29;20112;-83
2021/10/25 05:06:39;;;;;;;34.45;22.00;;;;;;;9.45;94.90;101820.25;4870414;29;20038;-84
2021/10/25 05:09:05;;;;;;;35.67;21.83;;;;;;;9.46;95.03;101818.50;4875740;29;21157;-83
2021/10/25 05:11:30;;;;;;;35.45;21.88;;;;;;;9.44;95.08;101815.06;4857611;29;20040;-83
2021/10/25 05:13:56;;;;;;;34.08;20.90;;;;;;;9.46;95.01;101813.28;4859834;29;20041;-83
2021/10/25 05:16:21;;;;;;;32.33;21.02;;;;;;;9.46;95.05;101818.50;4843254;29;20041;-83
2021/10/25 05:18:46;;;;;;;30.60;19.70;;;;;;;9.47;94.96;101815.88;4858745;29;20040;-83
2021/10/25 05:21:12;;;;;;;32.03;20.33;;;;;;;9.47;94.92;101820.25;4858839;29;20041;-83
2021/10/25 05:23:37;;;;;;;29.48;20.83;;;;;;;9.47;95.02;101815.88;4842902;29;20494;-83
2021/10/25 05:26:03;;;;;;;26.63;19.15;;;;;;;9.47;94.93;101815.88;4858009;29;20244;-83
2021/10/25 05:28:28;;;;;;;27.30;19.83;;;;;;;9.45;95.26;101811.56;4858407;29;20085;-83
2021/10/25 05:30:54;;;;;;;29.30;18.88;;;;;;;9.45;94.96;101814.19;4875009;29;20255;-83
2021/10/25 05:33:19;;;;;;;27.25;19.00;;;;;;;9.46;95.24;101806.31;4842953;29;20041;-83
2021/10/25 05:35:44;;;;;;;29.20;19.10;;;;;;;9.46;95.15;101811.53;4857776;29;20056;-83
2021/10/25 05:38:12;;;;;;;29.83;18.30;;;;;;;9.46;95.22;101811.53;4852785;29;20056;-83
2021/10/25 05:40:38;;;;;;;23.05;17.55;;;;;;;9.46;95.20;101808.03;4873114;29;20032;-83
2021/10/25 05:43:04;;;;;;;21.55;17.30;;;;;;;9.47;95.52;101804.56;4856531;29;20112;-83
2021/10/25 05:45:30;;;;;;;27.35;17.60;;;;;;;9.46;95.35;101797.59;4856659;29;20033;-83
2021/10/25 05:47:55;;;;;;;24.23;18.17;;;;;;;9.46;95.25;101797.59;4842483;29;20104;-83
2021/10/25 05:50:21;;;;;;;24.05;17.30;;;;;;;9.45;95.20;101801.09;4854148;29;20116;-83
2021/10/25 05:52:46;;;;;;;22.35;17.52;;;;;;;9.46;95.48;101801.09;4854923;29;20090;-83
2021/10/25 05:55:13;;;;;;;22.27;17.13;;;;;;;9.46;95.28;101801.09;4870530;29;20028;-83
2021/10/25 05:57:39;;;;;;;25.92;18.25;;;;;;;9.45;95.38;101803.72;4866474;29;20045;-83
2021/10/25 06:00:06;;;;;;;21.85;15.77;;;;;;;9.45;95.43;101796.72;4850098;29;20045;-83
2021/10/25 06:02:35;;;;;;;23.83;17.10;;;;;;;9.43;95.38;101790.69;4856713;29;20131;-83
2021/10/25 06:05:01;;;;;;;25.17;17.52;;;;;;;9.44;95.48;101799.38;4858506;29;20147;-83
2021/10/25 06:07:26;;;;;;;22.70;17.20;;;;;;;9.43;95.31;101795.06;4856601;29;20033;-83
2021/10/25 06:09:51;;;;;;;21.60;16.33;;;;;;;9.43;95.33;101795.91;4855053;29;20116;-83
2021/10/25 06:12:19;;;;;;;20.70;15.70;;;;;;;9.43;95.37;101800.28;4850558;29;20043;-84
2021/10/25 06:14:46;;;;;;;19.83;16.02;;;;;;;9.42;95.50;101796.78;4829356;29;20209;-83
2021/10/25 06:19:56;;;;;;;21.65;15.63;;;;;;;9.40;95.45;101796.84;4868789;29;20383;-83
2021/10/25 06:22:22;;;;;;;18.02;14.60;;;;;;;9.41;95.51;101795.09;4862107;29;20049;-83
2021/10/25 06:24:48;;;;;;;20.00;14.70;;;;;;;9.39;95.26;101795.09;4845047;29;20518;-83
2021/10/25 06:27:13;;;;;;;20.88;14.30;;;;;;;9.39;95.41;101791.63;4846125;29;20045;-84
2021/10/25 06:29:39;;;;;;;18.65;14.10;;;;;;;9.38;95.48;101797.75;4843618;29;20124;-83
2021/10/25 06:32:04;;;;;;;17.95;14.50;;;;;;;9.38;95.39;101797.75;4843527;29;20061;-83
2021/10/25 06:34:39;;;;;;;20.55;15.02;;;;;;;9.36;95.56;101789.09;4866392;29;20058;-83
2021/10/25 06:37:05;;;;;;;21.85;15.18;;;;;;;9.37;95.25;101793.44;4836243;29;20049;-83
2021/10/25 06:39:37;;;;;;;22.85;17.00;;;;;;;9.36;95.54;101795.16;4829139;29;20088;-83
2021/10/25 06:42:04;;;;;;;19.38;15.30;;;;;;;9.37;95.57;101793.44;4834939;29;20054;-84
2021/10/25 06:44:30;;;;;;;19.85;16.10;;;;;;;9.38;95.53;101805.59;4859239;29;20081;-84
2021/10/25 06:46:56;;;;;;;23.00;15.80;;;;;;;9.38;95.80;101801.22;4831060;29;20037;-85
2021/10/25 06:49:21;;;;;;;19.73;15.82;;;;;;;9.38;95.57;101802.97;4844815;29;20045;-83
2021/10/25 06:51:47;;;;;;;23.88;16.38;;;;;;;9.38;95.79;101803.81;4844949;29;20074;-83
2021/10/25 06:54:13;;;;;;;22.83;15.90;;;;;;;9.39;95.83;101796.88;4834186;29;20041;-83
2021/10/25 06:56:39;;;;;;;22.35;16.30;;;;;;;9.38;95.88;101798.59;4849701;29;20034;-85
2021/10/25 06:59:04;;;;;;;20.92;15.05;;;;;;;9.40;95.93;101807.31;4850312;29;20056;-83
2021/10/25 07:01:30;;;;;;;20.23;15.05;;;;;;;9.40;95.95;101802.06;4867904;29;20037;-84
2021/10/25 07:03:55;;;;;;;18.70;14.57;;;;;;;9.41;96.06;101803.78;4860489;29;20109;-84
2021/10/25 07:06:21;;;;;;;21.08;15.23;;;;;;;9.44;96.08;101804.59;4856666;29;20078;-84
2021/10/25 07:08:48;;;;;;;20.33;15.52;;;;;;;9.44;96.34;101802.88;4850016;29;20138;-84
2021/10/25 07:11:15;;;;;;;20.83;15.90;;;;;;;9.44;96.44;101813.34;4868163;29;20221;-84
2021/10/25 07:13:48;;;;;;;24.00;17.00;;;;;;;9.47;96.23;101822.84;4848593;29;20112;-84
2021/10/25 07:16:29;;;;;;;21.63;16.40;;;;;;;9.46;96.29;101819.38;4855658;29;20104;-84
2021/10/25 08:10:21;;;;;;;23.98;15.95;;;;;;;9.58;97.03;101844.41;4835468;29;20060;-84
2021/10/25 08:12:52;;;;;;;24.98;17.50;;;;;;;9.59;97.18;101843.53;4852187;29;20037;-84
2021/10/25 08:15:33;;;;;;;24.20;17.80;;;;;;;9.58;96.99;101845.25;4856151;29;20049;-84
2021/10/25 08:18:00;;;;;;;28.33;19.05;;;;;;;9.58;97.06;101845.25;4854116;29;20060;-83
2021/10/25 08:20:26;;;;;;;29.58;19.90;;;;;;;9.59;97.17;101840.91;4847676;29;20041;-83
2021/10/25 08:22:51;;;;;;;26.80;19.30;;;;;;;9.58;97.17;101842.66;4870525;29;20105;-83
2021/10/25 08:25:17;;;;;;;30.05;18.75;;;;;;;9.58;97.34;101847.88;4854759;29;20044;-84
2021/10/25 08:27:42;;;;;;;28.75;19.30;;;;;;;9.59;96.92;101847.00;4852716;29;20041;-83
2021/10/25 08:30:11;;;;;;;29.40;20.27;;;;;;;9.61;97.10;101847.81;4868517;29;20095;-83
2021/10/25 08:35:19;;;;;;;36.75;22.27;;;;;;;9.67;97.38;101843.38;4872596;29;20053;-84
2021/10/25 08:40:30;;;;;;;38.92;22.45;;;;;;;9.71;97.49;101839.78;4848260;29;20360;-83
2021/10/25 08:42:56;;;;;;;39.63;22.70;;;;;;;9.71;97.43;101843.25;4858457;29;20109;-84
2021/10/25 08:45:32;;;;;;;41.55;23.85;;;;;;;9.73;97.47;101851.97;4841138;29;20300;-84
2021/10/25 08:47:58;;;;;;;35.65;23.83;;;;;;;9.73;97.61;101851.06;4858757;29;20414;-83
2021/10/25 08:50:26;;;;;;;42.15;24.80;;;;;;;9.74;97.62;101847.56;4850914;29;20371;-84
2021/10/25 08:52:52;;;;;;;45.45;26.77;;;;;;;9.76;97.49;101848.41;4850646;29;20045;-83
2021/10/25 08:55:18;;;;;;;36.38;24.73;;;;;;;9.77;97.57;101850.13;4864513;29;20270;-84
2021/10/25 08:57:43;;;;;;;44.97;26.45;;;;;;;9.77;97.56;101850.13;4867395;29;20194;-84
2021/10/25 09:00:10;;;;;;;49.55;27.17;;;;;;;9.78;97.72;101844.00;4864111;29;20408;-84
2021/10/25 09:02:35;;;;;;;44.17;26.10;;;;;;;9.78;97.78;101852.69;4867066;29;20444;-84
2021/10/25 09:05:11;;;;;;;42.03;26.85;;;;;;;9.80;97.45;101853.56;4851750;29;20262;-84
2021/10/25 09:07:52;;;;;;;49.45;27.65;;;;;;;9.80;97.75;101850.94;4847014;29;20041;-84
2021/10/25 09:10:33;;;;;;;49.30;27.92;;;;;;;9.83;97.54;101854.38;4869655;29;20040;-84
2021/10/25 09:13:05;;;;;;;54.58;29.85;;;;;;;9.83;97.47;101846.53;4877158;29;20124;-84
2021/10/25 09:15:38;;;;;;;54.13;29.27;;;;;;;9.86;97.54;101854.28;4859685;29;20022;-84
2021/10/25 09:18:12;;;;;;;52.95;29.80;;;;;;;9.87;97.79;101848.19;4854954;29;20343;-84
2021/10/25 09:21:10;;;;;;;63.28;31.80;;;;;;;9.89;97.74;101847.22;4856942;29;20120;-84
2021/10/25 09:23:37;;;;;;;62.30;32.60;;;;;;;9.90;97.62;101845.50;4869619;29;20053;-84
2021/10/25 09:26:15;;;;;;;65.82;32.95;;;;;;;9.92;97.65;101838.47;4846196;29;20045;-84
2021/10/25 09:28:45;;;;;;;59.83;32.17;;;;;;;9.93;97.75;101838.44;4859465;29;20057;-84
2021/10/25 09:31:16;;;;;;;64.85;33.28;;;;;;;9.96;97.97;101833.13;4842609;29;20663;-84
2021/10/25 09:33:48;;;;;;;66.50;34.25;;;;;;;9.96;97.98;101830.50;4872257;29;20044;-84
2021/10/25 09:36:15;;;;;;;62.47;34.38;;;;;;;9.98;97.81;101835.72;4862052;29;20093;-84
2021/10/25 09:49:51;;;;;;;68.57;35.40;;;;;;;10.04;97.94;101840.81;4799787;29;20047;-84
2021/10/25 09:52:17;;;;;;;72.40;36.88;;;;;;;10.06;98.12;101841.66;4859096;29;20044;-83
2021/10/25 09:54:43;;;;;;;75.47;37.78;;;;;;;10.08;98.13;101844.22;4868798;29;20045;-84
2021/10/25 09:57:13;;;;;;;81.07;38.95;;;;;;;10.08;97.95;101839.84;4853990;29;20036;-84
2021/10/25 09:59:56;;;;;;;80.80;39.03;;;;;;;10.10;97.93;101848.53;4869711;29;20053;-84
2021/10/25 10:02:21;;;;;;;82.53;39.17;;;;;;;10.10;97.88;101843.28;4840281;29;20063;-84
2021/10/25 10:04:51;;;;;;;73.47;37.75;;;;;;;10.11;98.10;101846.75;4844839;29;20029;-85
2021/10/25 10:07:17;;;;;;;80.32;38.38;;;;;;;10.10;97.82;101837.22;4845316;29;20041;-84
2021/10/25 10:09:46;;;;;;;79.78;39.20;;;;;;;10.12;98.08;101828.41;4865820;29;20045;-84
2021/10/25 10:12:17;;;;;;;86.68;39.42;;;;;;;10.15;98.24;101836.19;4850825;29;20028;-84
2021/10/25 10:14:45;;;;;;;82.57;38.83;;;;;;;10.19;98.17;101834.38;4839866;29;20124;-84
2021/10/25 10:17:10;;;;;;;89.90;40.00;;;;;;;10.22;98.26;101846.53;4867563;29;20375;-84
2021/10/25 10:19:35;;;;;;;83.43;41.60;;;;;;;10.22;98.37;101831.66;4833868;29;20061;-83
2021/10/25 10:22:02;;;;;;;90.25;41.08;;;;;;;10.22;98.18;101834.28;4838368;29;20236;-83
2021/10/25 10:24:35;;;;;;;92.80;42.30;;;;;;;10.23;98.53;101825.53;4868771;29;20136;-83
2021/10/25 10:27:05;;;;;;;95.03;43.15;;;;;;;10.25;98.22;101828.13;4838857;29;20198;-84
2021/10/25 10:29:38;;;;;;;89.03;42.13;;;;;;;10.26;98.50;101835.06;4838222;29;20396;-83
2021/10/25 10:32:06;;;;;;;90.70;41.80;;;;;;;10.26;98.53;101833.34;4880386;29;20815;-84
2021/10/25 10:34:42;;;;;;;80.28;39.70;;;;;;;10.24;98.51;101827.28;4833961;29;20117;-84
2021/10/25 10:37:16;;;;;;;82.28;40.60;;;;;;;10.24;98.23;101831.63;4842919;29;20096;-84
2021/10/25 10:39:42;;;;;;;91.68;41.85;;;;;;;10.25;98.16;101833.38;4871638;29;20092;-84
2021/10/25 10:42:07;;;;;;;84.45;40.25;;;;;;;10.29;98.46;101830.63;4851093;29;20037;-84
2021/10/25 10:44:33;;;;;;;96.60;43.38;;;;;;;10.30;98.02;101828.88;4837609;29;20041;-83
2021/10/25 10:47:01;;;;;;;84.55;41.45;;;;;;;10.33;98.17;101829.72;4843080;29;20021;-84
2021/10/25 10:49:38;;;;;;;80.18;41.22;;;;;;;10.35;98.32;101827.03;4856254;29;20096;-84
2021/10/25 10:55:09;;;;;;;90.65;41.67;;;;;;;10.38;98.20;101825.19;4861333;29;20221;-84
2021/10/25 11:00:12;;;;;;;85.60;40.95;;;;;;;10.45;98.42;101831.16;4845968;29;20057;-84
2021/10/25 11:02:50;;;;;;;90.97;41.38;;;;;;;10.46;98.17;101825.03;4862752;29;20105;-84
2021/10/25 11:05:16;;;;;;;87.75;41.35;;;;;;;10.48;98.48;101822.38;4849250;29;20045;-84
2021/10/25 11:07:41;;;;;;;89.30;41.72;;;;;;;10.50;98.46;101826.69;4848631;29;20092;-84
2021/10/25 11:10:09;;;;;;;84.18;40.53;;;;;;;10.50;98.35;101824.06;4833100;29;20043;-84
2021/10/25 11:12:41;;;;;;;81.47;38.28;;;;;;;10.51;98.51;101833.66;4835679;29;20034;-84
2021/10/25 11:15:09;;;;;;;77.80;38.20;;;;;;;10.47;98.39;101824.13;4841811;29;20025;-84
2021/10/25 11:17:36;;;;;;;79.28;37.85;;;;;;;10.49;98.23;101835.41;4849467;29;20084;-84
2021/10/25 11:20:01;;;;;;;80.38;39.75;;;;;;;10.49;98.27;101826.72;4846343;29;20026;-84
2021/10/25 11:22:31;;;;;;;83.32;40.08;;;;;;;10.49;98.17;101830.19;4831932;29;20056;-84
2021/10/25 11:24:57;;;;;;;85.47;39.92;;;;;;;10.51;98.19;101828.41;4863755;29;20066;-84
2021/10/25 11:27:30;;;;;;;83.38;40.55;;;;;;;10.52;98.07;101832.72;4849700;29;20037;-84
2021/10/25 11:30:12;;;;;;;74.22;38.38;;;;;;;10.52;98.19;101832.72;4850862;29;20246;-84
2021/10/25 11:32:38;;;;;;;74.28;35.60;;;;;;;10.52;97.92;101839.75;4837200;29;20033;-84
2021/10/25 11:35:10;;;;;;;68.32;34.40;;;;;;;10.51;98.12;101828.41;4851609;29;20085;-84
2021/10/25 11:37:35;;;;;;;71.60;35.75;;;;;;;10.52;98.08;101822.25;4874864;29;20068;-84
2021/10/25 11:40:05;;;;;;;61.13;32.97;;;;;;;10.53;98.42;101823.09;4881244;29;20030;-84
2021/10/25 11:42:39;;;;;;;69.78;33.30;;;;;;;10.53;98.37;101816.13;4856321;29;20039;-84
2021/10/25 11:45:15;;;;;;;56.83;31.70;;;;;;;10.55;98.04;101810.81;4861831;29;20056;-84
2021/10/25 11:47:42;;;;;;;62.33;33.38;;;;;;;10.57;98.35;101811.69;4852066;29;20328;-84
2021/10/25 11:50:10;;;;;;;71.18;33.28;;;;;;;10.56;98.37;101810.78;4843464;29;20033;-84
2021/10/25 11:52:46;;;;;;;64.10;33.17;;;;;;;10.58;98.39;101816.00;4859047;29;20037;-84
2021/10/25 11:55:17;;;;;;;66.32;32.22;;;;;;;10.57;98.58;101807.28;4846909;29;20050;-84
2021/10/25 11:57:53;;;;;;;63.97;32.72;;;;;;;10.60;98.52;101808.97;4835641;29;20396;-83
2021/10/25 12:00:20;;;;;;;69.85;32.42;;;;;;;10.62;98.22;101815.00;4847762;29;20042;-84
2021/10/25 12:02:45;;;;;;;59.70;32.20;;;;;;;10.64;98.16;101814.97;4857795;29;20037;-84
2021/10/25 12:05:11;;;;;;;68.05;33.15;;;;;;;10.64;98.65;101809.75;4839671;29;20177;-84
2021/10/25 12:08:03;;;;;;;68.68;33.17;;;;;;;10.66;98.18;101807.94;4833521;29;20045;-84
2021/10/25 12:10:29;;;;;;;60.00;32.05;;;;;;;10.66;98.24;101805.31;4849940;29;20304;-84
2021/10/25 12:13:02;;;;;;;58.83;32.80;;;;;;;10.66;98.33;101803.59;4839807;29;20077;-84
2021/10/25 12:15:32;;;;;;;58.45;28.85;;;;;;;10.67;98.47;101801.81;4864652;29;20041;-84
2021/10/25 12:18:04;;;;;;;57.58;29.85;;;;;;;10.69;98.26;101800.88;4836570;29;20097;-84
2021/10/25 12:20:37;;;;;;;52.33;29.63;;;;;;;10.69;98.51;101790.38;4834310;29;20376;-84
2021/10/25 12:23:10;;;;;;;54.75;28.65;;;;;;;10.70;98.42;101797.34;4850970;29;20072;-84
2021/10/25 12:25:36;;;;;;;51.22;28.98;;;;;;;10.72;98.30;101794.69;4869340;29;20120;-84
2021/10/25 12:28:09;;;;;;;49.33;28.25;;;;;;;10.74;98.17;101788.50;4868388;29;20261;-84
2021/10/25 12:30:34;;;;;;;59.67;29.38;;;;;;;10.77;98.19;101790.22;4857263;29;20032;-83
2021/10/25 12:33:01;;;;;;;54.88;28.35;;;;;;;10.79;98.48;101790.13;4878648;29;20038;-84
2021/10/25 12:35:44;;;;;;;51.00;27.67;;;;;;;10.81;98.11;101796.22;4867209;29;20032;-84
2021/10/25 12:38:12;;;;;;;47.28;27.50;;;;;;;10.82;98.03;101795.31;4844131;29;20028;-84
2021/10/25 12:40:48;;;;;;;54.42;29.02;;;;;;;10.82;97.97;101792.69;4859311;29;20044;-84
2021/10/25 12:43:15;;;;;;;55.88;28.92;;;;;;;10.79;98.10;101796.25;4836560;29;20096;-84
2021/10/25 12:45:44;;;;;;;50.80;28.63;;;;;;;10.81;98.00;101791.00;4851971;29;20021;-84
2021/10/25 12:48:14;;;;;;;55.20;29.33;;;;;;;10.79;98.09;101793.66;4839645;29;20280;-84
2021/10/25 12:50:44;;;;;;;59.85;31.45;;;;;;;10.80;97.85;101784.88;4842892;29;20089;-84
2021/10/25 12:53:12;;;;;;;52.85;28.40;;;;;;;10.82;97.66;101784.81;4861619;29;20229;-84
2021/10/25 12:55:38;;;;;;;65.50;32.45;;;;;;;10.82;97.63;101785.69;4852252;29;20041;-84
2021/10/25 12:58:11;;;;;;;56.10;33.30;;;;;;;10.83;97.89;101790.03;4841129;29;20056;-84
2021/10/25 13:00:37;;;;;;;65.80;34.05;;;;;;;10.82;97.63;101785.69;4869332;29;20065;-84
2021/10/25 13:03:10;;;;;;;60.33;32.30;;;;;;;10.83;97.67;101783.94;4838226;29;20029;-84
2021/10/25 13:05:37;;;;;;;51.47;31.80;;;;;;;10.83;97.96;101786.56;4852400;29;20270;-84